sensor_id;sensor_type;location;lat;lon;timestamp;pressure;altitude;pressure_sealevel;temperature;humidity
61568;BME280;47462;59.172;17.196;2022-10-16T00:02:05;100078.59;;;12.95;86.59
61568;BME280;47462;59.172;17.196;2022-10-16T00:04:30;100068.19;;;12.93;86.63
61568;BME280;47462;59.172;17.196;2022-10-16T00:06:56;100066.66;;;12.89;86.55
61568;BME280;47462;59.172;17.196;2022-10-16T00:09:21;100069.63;;;12.81;86.69
61568;BME280;47462;59.172;17.196;2022-10-16T00:11:46;100068.03;;;12.79;86.74
61568;BME280;47462;59.172;17.196;2022-10-16T00:14:13;100066.47;;;12.75;86.74
61568;BME280;47462;59.172;17.196;2022-10-16T00:16:39;100056.06;;;12.73;86.78
61568;BME280;47462;59.172;17.196;2022-10-16T00:19:04;100061.38;;;12.72;86.70
61568;BME280;47462;59.172;17.196;2022-10-16T00:21:30;100055.31;;;12.71;86.65
61568;BME280;47462;59.172;17.196;2022-10-16T00:23:57;100056.16;;;12.72;86.61
61568;BME280;47462;59.172;17.196;2022-10-16T00:26:24;100054.53;;;12.69;86.65
61568;BME280;47462;59.172;17.196;2022-10-16T00:28:50;100070.28;;;12.67;86.51
61568;BME280;47462;59.172;17.196;2022-10-16T00:31:16;100065.50;;;12.58;86.58
61568;BME280;47462;59.172;17.196;2022-10-16T00:33:42;100070.72;;;12.58;86.81
61568;BME280;47462;59.172;17.196;2022-10-16T00:36:09;100072.72;;;12.53;86.82
61568;BME280;47462;59.172;17.196;2022-10-16T00:38:35;100068.63;;;12.47;86.86
61568;BME280;47462;59.172;17.196;2022-10-16T00:41:00;100065.09;;;12.48;87.02
61568;BME280;47462;59.172;17.196;2022-10-16T00:43:42;100073.03;;;12.47;87.14
61568;BME280;47462;59.172;17.196;2022-10-16T00:48:39;100079.16;;;12.46;87.13
61568;BME280;47462;59.172;17.196;2022-10-16T00:51:04;100078.94;;;12.51;87.24
61568;BME280;47462;59.172;17.196;2022-10-16T00:53:31;100085.06;;;12.51;87.13
61568;BME280;47462;59.172;17.196;2022-10-16T00:55:56;100076.03;;;12.57;87.07
61568;BME280;47462;59.172;17.196;2022-10-16T00:58:21;100079.31;;;12.62;87.01
61568;BME280;47462;59.172;17.196;2022-10-16T01:00:46;99816.19;;;11.07;86.84
61568;BME280;47462;59.172;17.196;2022-10-16T01:03:26;100074.63;;;12.69;87.24
61568;BME280;47462;59.172;17.196;2022-10-16T01:06:18;100071.03;;;12.71;87.12
61568;BME280;47462;59.172;17.196;2022-10-16T01:11:11;100069.47;;;12.67;86.92
61568;BME280;47462;59.172;17.196;2022-10-16T01:13:42;100068.78;;;12.63;87.21
61568;BME280;47462;59.172;17.196;2022-10-16T01:16:16;100062.44;;;12.67;87.23
61568;BME280;47462;59.172;17.196;2022-10-16T01:18:43;100067.59;;;12.69;87.07
61568;BME280;47462;59.172;17.196;2022-10-16T01:21:10;100065.84;;;12.70;87.11
61568;BME280;47462;59.172;17.196;2022-10-16T01:29:05;100061.38;;;12.72;87.14
61568;BME280;47462;59.172;17.196;2022-10-16T01:31:34;100062.16;;;12.74;87.06
61568;BME280;47462;59.172;17.196;2022-10-16T01:36:41;100052.63;;;12.73;86.87
61568;BME280;47462;59.172;17.196;2022-10-16T01:39:08;100049.78;;;12.77;86.97
61568;BME280;47462;59.172;17.196;2022-10-16T01:41:36;100054.06;;;12.78;86.95
61568;BME280;47462;59.172;17.196;2022-10-16T01:46:32;100054.38;;;12.72;86.93
61568;BME280;47462;59.172;17.196;2022-10-16T01:48:59;100052.63;;;12.73;87.04
61568;BME280;47462;59.172;17.196;2022-10-16T01:51:25;100057.84;;;12.73;86.93
61568;BME280;47462;59.172;17.196;2022-10-16T01:53:54;100055.16;;;12.74;86.82
61568;BME280;47462;59.172;17.196;2022-10-16T01:56:20;100054.16;;;12.77;86.95
61568;BME280;47462;59.172;17.196;2022-10-16T01:58:51;100068.41;;;12.71;86.84
61568;BME280;47462;59.172;17.196;2022-10-16T02:03:54;100065.44;;;12.60;87.33
61568;BME280;47462;59.172;17.196;2022-10-16T02:06:22;100067.81;;;12.64;87.29
61568;BME280;47462;59.172;17.196;2022-10-16T02:08:47;100070.38;;;12.66;87.19
61568;BME280;47462;59.172;17.196;2022-10-16T02:11:13;100064.16;;;12.69;86.92
61568;BME280;47462;59.172;17.196;2022-10-16T02:14:11;100056.44;;;12.65;86.97
61568;BME280;47462;59.172;17.196;2022-10-16T02:16:33;100075.00;;;12.61;86.88
61568;BME280;47462;59.172;17.196;2022-10-16T02:18:59;99733.56;;;10.47;87.13
61568;BME280;47462;59.172;17.196;2022-10-16T02:26:31;100053.34;;;12.57;87.28
61568;BME280;47462;59.172;17.196;2022-10-16T02:29:02;100034.88;;;12.60;87.22
61568;BME280;47462;59.172;17.196;2022-10-16T02:31:31;100029.56;;;12.62;87.13
61568;BME280;47462;59.172;17.196;2022-10-16T02:33:59;100039.03;;;12.64;87.12
61568;BME280;47462;59.172;17.196;2022-10-16T02:36:25;100017.94;;;12.67;87.02
61568;BME280;47462;59.172;17.196;2022-10-16T02:38:50;100027.56;;;12.67;86.91
61568;BME280;47462;59.172;17.196;2022-10-16T02:41:18;100029.34;;;12.66;86.89
61568;BME280;47462;59.172;17.196;2022-10-16T02:43:45;100035.50;;;12.65;86.92
61568;BME280;47462;59.172;17.196;2022-10-16T02:46:10;100029.44;;;12.65;86.86
61568;BME280;47462;59.172;17.196;2022-10-16T02:48:35;100034.66;;;12.65;86.80
61568;BME280;47462;59.172;17.196;2022-10-16T02:51:01;100039.91;;;12.65;86.61
61568;BME280;47462;59.172;17.196;2022-10-16T02:53:26;100032.13;;;12.63;86.69
61568;BME280;47462;59.172;17.196;2022-10-16T02:55:51;100021.66;;;12.63;86.66
61568;BME280;47462;59.172;17.196;2022-10-16T02:58:17;100032.88;;;12.65;86.40
61568;BME280;47462;59.172;17.196;2022-10-16T03:00:42;100021.78;;;12.60;86.56
61568;BME280;47462;59.172;17.196;2022-10-16T03:03:07;100025.47;;;12.56;86.75
61568;BME280;47462;59.172;17.196;2022-10-16T03:05:32;100015.06;;;12.55;86.60
61568;BME280;47462;59.172;17.196;2022-10-16T03:07:58;100003.84;;;12.53;86.62
61568;BME280;47462;59.172;17.196;2022-10-16T03:10:25;100004.53;;;12.56;86.38
61568;BME280;47462;59.172;17.196;2022-10-16T03:12:50;100007.91;;;12.58;86.30
61568;BME280;47462;59.172;17.196;2022-10-16T03:15:16;100014.03;;;12.59;86.34
61568;BME280;47462;59.172;17.196;2022-10-16T03:17:41;100015.00;;;12.56;86.23
61568;BME280;47462;59.172;17.196;2022-10-16T03:20:06;100015.00;;;12.56;86.13
61568;BME280;47462;59.172;17.196;2022-10-16T03:22:32;100010.59;;;12.57;86.35
61568;BME280;47462;59.172;17.196;2022-10-16T03:24:57;100010.00;;;12.52;86.22
61568;BME280;47462;59.172;17.196;2022-10-16T03:27:22;100011.81;;;12.49;86.48
61568;BME280;47462;59.172;17.196;2022-10-16T03:29:48;100005.88;;;12.46;86.31
61568;BME280;47462;59.172;17.196;2022-10-16T03:32:13;100004.19;;;12.45;86.23
61568;BME280;47462;59.172;17.196;2022-10-16T03:34:39;100000.72;;;12.44;86.58
61568;BME280;47462;59.172;17.196;2022-10-16T03:37:04;99999.97;;;12.42;86.46
61568;BME280;47462;59.172;17.196;2022-10-16T03:39:29;99992.25;;;12.39;86.47
61568;BME280;47462;59.172;17.196;2022-10-16T03:41:55;99995.78;;;12.38;86.45
61568;BME280;47462;59.172;17.196;2022-10-16T03:44:20;99997.50;;;12.39;86.35
61568;BME280;47462;59.172;17.196;2022-10-16T03:46:46;100001.31;;;12.32;86.45
61568;BME280;47462;59.172;17.196;2022-10-16T03:49:11;100008.31;;;12.31;86.51
61568;BME280;47462;59.172;17.196;2022-10-16T03:51:37;100004.16;;;12.27;86.31
61568;BME280;47462;59.172;17.196;2022-10-16T03:54:02;100006.91;;;12.24;86.52
61568;BME280;47462;59.172;17.196;2022-10-16T03:56:27;100006.84;;;12.26;86.51
61568;BME280;47462;59.172;17.196;2022-10-16T03:58:53;100012.91;;;12.26;86.36
61568;BME280;47462;59.172;17.196;2022-10-16T04:01:18;100020.69;;;12.28;86.36
61568;BME280;47462;59.172;17.196;2022-10-16T04:03:43;100028.47;;;12.29;86.46
61568;BME280;47462;59.172;17.196;2022-10-16T04:06:08;100024.03;;;12.31;86.37
61568;BME280;47462;59.172;17.196;2022-10-16T04:08:34;99734.59;;;10.64;86.01
61568;BME280;47462;59.172;17.196;2022-10-16T04:18:39;100021.41;;;12.31;86.45
61568;BME280;47462;59.172;17.196;2022-10-16T04:21:05;100013.69;;;12.28;86.63
61568;BME280;47462;59.172;17.196;2022-10-16T04:23:31;100017.16;;;12.29;86.48
61568;BME280;47462;59.172;17.196;2022-10-16T04:25:56;100019.06;;;12.25;86.68
61568;BME280;47462;59.172;17.196;2022-10-16T04:36:06;100011.38;;;12.22;86.97
61568;BME280;47462;59.172;17.196;2022-10-16T04:38:32;100008.63;;;12.25;86.74
61568;BME280;47462;59.172;17.196;2022-10-16T04:40:57;100009.38;;;12.27;86.68
61568;BME280;47462;59.172;17.196;2022-10-16T04:43:22;100016.31;;;12.28;86.97
61568;BME280;47462;59.172;17.196;2022-10-16T04:45:48;100009.38;;;12.27;86.84
61568;BME280;47462;59.172;17.196;2022-10-16T04:48:15;100019.69;;;12.30;86.66
61568;BME280;47462;59.172;17.196;2022-10-16T04:50:40;100038.78;;;12.32;86.66
61568;BME280;47462;59.172;17.196;2022-10-16T04:53:06;100020.59;;;12.29;86.74
61568;BME280;47462;59.172;17.196;2022-10-16T04:55:32;100013.69;;;12.28;86.72
61568;BME280;47462;59.172;17.196;2022-10-16T04:57:58;100036.22;;;12.31;86.81
61568;BME280;47462;59.172;17.196;2022-10-16T05:00:23;100016.19;;;12.31;86.54
61568;BME280;47462;59.172;17.196;2022-10-16T05:02:51;100017.09;;;12.30;86.58
61568;BME280;47462;59.172;17.196;2022-10-16T05:05:17;100019.00;;;12.27;86.68
61568;BME280;47462;59.172;17.196;2022-10-16T05:07:44;100015.31;;;12.31;86.78
61568;BME280;47462;59.172;17.196;2022-10-16T05:10:09;100013.69;;;12.28;86.56
61568;BME280;47462;59.172;17.196;2022-10-16T05:12:34;100018.94;;;12.28;86.88
61568;BME280;47462;59.172;17.196;2022-10-16T05:15:00;100020.53;;;12.31;86.62
61568;BME280;47462;59.172;17.196;2022-10-16T05:17:25;100019.78;;;12.29;86.82
61568;BME280;47462;59.172;17.196;2022-10-16T05:19:51;100028.47;;;12.29;86.89
61568;BME280;47462;59.172;17.196;2022-10-16T05:22:16;100024.09;;;12.30;86.78
61568;BME280;47462;59.172;17.196;2022-10-16T05:24:41;100026.56;;;12.33;86.66
61568;BME280;47462;59.172;17.196;2022-10-16T05:27:07;100026.34;;;12.38;86.73
61568;BME280;47462;59.172;17.196;2022-10-16T05:29:33;100032.50;;;12.37;86.68
61568;BME280;47462;59.172;17.196;2022-10-16T05:32:01;100028.31;;;12.32;86.75
61568;BME280;47462;59.172;17.196;2022-10-16T05:34:26;100027.34;;;12.35;86.86
61568;BME280;47462;59.172;17.196;2022-10-16T05:36:51;100032.63;;;12.34;86.89
61568;BME280;47462;59.172;17.196;2022-10-16T05:39:17;100039.66;;;12.33;86.67
61568;BME280;47462;59.172;17.196;2022-10-16T05:41:42;100040.47;;;12.34;86.78
61568;BME280;47462;59.172;17.196;2022-10-16T05:44:07;100052.66;;;12.35;87.06
61568;BME280;47462;59.172;17.196;2022-10-16T05:46:33;100068.44;;;12.33;86.66
61568;BME280;47462;59.172;17.196;2022-10-16T05:48:58;100045.72;;;12.34;86.57
61568;BME280;47462;59.172;17.196;2022-10-16T05:51:24;100050.31;;;12.28;86.92
61568;BME280;47462;59.172;17.196;2022-10-16T05:53:49;100064.38;;;12.26;86.98
61568;BME280;47462;59.172;17.196;2022-10-16T05:56:14;100063.63;;;12.24;86.99
61568;BME280;47462;59.172;17.196;2022-10-16T05:58:40;100065.22;;;12.26;87.18
61568;BME280;47462;59.172;17.196;2022-10-16T06:01:06;100069.47;;;12.29;87.09
61568;BME280;47462;59.172;17.196;2022-10-16T06:03:32;100076.28;;;12.33;87.03
61568;BME280;47462;59.172;17.196;2022-10-16T06:05:57;100078.09;;;12.31;87.05
61568;BME280;47462;59.172;17.196;2022-10-16T06:08:23;100071.81;;;12.35;86.88
61568;BME280;47462;59.172;17.196;2022-10-16T06:10:48;100065.59;;;12.38;86.91
61568;BME280;47462;59.172;17.196;2022-10-16T06:13:14;100078.03;;;12.32;86.68
61568;BME280;47462;59.172;17.196;2022-10-16T06:15:40;100079.88;;;12.30;87.10
61568;BME280;47462;59.172;17.196;2022-10-16T06:18:07;100078.97;;;12.31;87.19
61568;BME280;47462;59.172;17.196;2022-10-16T06:20:32;100079.66;;;12.35;87.05
61568;BME280;47462;59.172;17.196;2022-10-16T06:22:57;100079.66;;;12.35;86.81
61568;BME280;47462;59.172;17.196;2022-10-16T06:25:22;100085.72;;;12.36;87.17
61568;BME280;47462;59.172;17.196;2022-10-16T06:27:48;99906.38;;;11.35;86.87
61568;BME280;47462;59.172;17.196;2022-10-16T06:30:13;100086.31;;;12.42;87.01
61568;BME280;47462;59.172;17.196;2022-10-16T06:32:38;100074.97;;;12.42;86.88
61568;BME280;47462;59.172;17.196;2022-10-16T06:35:04;100082.00;;;12.41;86.93
61568;BME280;47462;59.172;17.196;2022-10-16T06:37:29;100086.25;;;12.44;86.89
61568;BME280;47462;59.172;17.196;2022-10-16T06:39:54;100085.16;;;12.48;86.90
61568;BME280;47462;59.172;17.196;2022-10-16T06:42:20;100084.31;;;12.47;86.67
61568;BME280;47462;59.172;17.196;2022-10-16T06:44:46;100083.63;;;12.44;87.02
61568;BME280;47462;59.172;17.196;2022-10-16T06:47:11;100075.63;;;12.47;86.96
61568;BME280;47462;59.172;17.196;2022-10-16T06:54:45;100079.03;;;12.49;86.71
61568;BME280;47462;59.172;17.196;2022-10-16T06:57:11;100083.34;;;12.50;86.60
61568;BME280;47462;59.172;17.196;2022-10-16T06:59:36;100089.41;;;12.51;86.72
61568;BME280;47462;59.172;17.196;2022-10-16T07:02:02;100083.91;;;12.57;86.72
61568;BME280;47462;59.172;17.196;2022-10-16T07:04:29;100087.31;;;12.59;86.48
61568;BME280;47462;59.172;17.196;2022-10-16T07:06:55;100084.47;;;12.63;86.47
61568;BME280;47462;59.172;17.196;2022-10-16T07:09:23;100092.94;;;12.69;86.27
61568;BME280;47462;59.172;17.196;2022-10-16T07:11:55;100087.50;;;12.73;86.11
61568;BME280;47462;59.172;17.196;2022-10-16T07:14:21;100093.50;;;12.75;86.30
61568;BME280;47462;59.172;17.196;2022-10-16T07:16:47;100087.34;;;12.76;85.99
61568;BME280;47462;59.172;17.196;2022-10-16T07:19:14;100091.75;;;12.76;86.04
61568;BME280;47462;59.172;17.196;2022-10-16T07:21:44;100143.09;;;12.78;86.26
61568;BME280;47462;59.172;17.196;2022-10-16T07:24:13;100095.91;;;12.80;85.94
61568;BME280;47462;59.172;17.196;2022-10-16T07:26:40;100097.75;;;12.78;86.21
61568;BME280;47462;59.172;17.196;2022-10-16T07:29:06;100095.91;;;12.80;86.15
61568;BME280;47462;59.172;17.196;2022-10-16T07:31:32;100099.94;;;12.87;86.05
61568;BME280;47462;59.172;17.196;2022-10-16T07:33:58;100095.31;;;12.92;85.85
61568;BME280;47462;59.172;17.196;2022-10-16T07:36:24;100099.34;;;12.99;85.70
61568;BME280;47462;59.172;17.196;2022-10-16T07:38:52;100105.41;;;13.00;85.37
61568;BME280;47462;59.172;17.196;2022-10-16T07:41:18;100106.34;;;12.99;85.63
61568;BME280;47462;59.172;17.196;2022-10-16T07:43:48;100112.56;;;12.96;85.27
61568;BME280;47462;59.172;17.196;2022-10-16T07:46:14;100112.28;;;13.02;85.30
61568;BME280;47462;59.172;17.196;2022-10-16T07:48:40;100111.28;;;13.05;84.95
61568;BME280;47462;59.172;17.196;2022-10-16T07:51:15;100124.31;;;13.07;85.02
61568;BME280;47462;59.172;17.196;2022-10-16T07:53:41;100118.94;;;13.10;85.17
61568;BME280;47462;59.172;17.196;2022-10-16T07:56:07;100123.53;;;13.05;85.01
61568;BME280;47462;59.172;17.196;2022-10-16T07:58:33;100130.38;;;13.07;85.27
61568;BME280;47462;59.172;17.196;2022-10-16T08:01:07;100121.41;;;13.13;84.98
61568;BME280;47462;59.172;17.196;2022-10-16T08:03:33;100117.56;;;13.20;84.93
61568;BME280;47462;59.172;17.196;2022-10-16T08:06:08;100130.66;;;13.20;84.30
61568;BME280;47462;59.172;17.196;2022-10-16T08:08:35;100127.81;;;13.25;84.14
61568;BME280;47462;59.172;17.196;2022-10-16T08:11:03;99507.69;;;9.46;83.74
61568;BME280;47462;59.172;17.196;2022-10-16T08:13:30;100130.03;;;13.15;84.37
61568;BME280;47462;59.172;17.196;2022-10-16T08:16:00;100139.25;;;13.05;83.86
61568;BME280;47462;59.172;17.196;2022-10-16T08:18:30;100136.31;;;13.11;84.02
61568;BME280;47462;59.172;17.196;2022-10-16T08:20:57;100145.66;;;13.16;83.62
61568;BME280;47462;59.172;17.196;2022-10-16T08:23:26;100135.91;;;13.20;83.54
61568;BME280;47462;59.172;17.196;2022-10-16T08:25:56;100144.31;;;13.27;83.55
61568;BME280;47462;59.172;17.196;2022-10-16T08:28:22;100148.47;;;13.31;83.09
61568;BME280;47462;59.172;17.196;2022-10-16T08:30:56;100150.97;;;13.15;82.86
61568;BME280;47462;59.172;17.196;2022-10-16T08:33:23;100148.34;;;13.15;83.19
61568;BME280;47462;59.172;17.196;2022-10-16T08:35:54;100139.38;;;13.20;82.92
61568;BME280;47462;59.172;17.196;2022-10-16T08:38:23;100147.50;;;13.33;82.71
61568;BME280;47462;59.172;17.196;2022-10-16T08:43:46;100142.75;;;13.42;82.37
61568;BME280;47462;59.172;17.196;2022-10-16T08:49:05;100151.13;;;13.48;82.07
61568;BME280;47462;59.172;17.196;2022-10-16T08:51:34;100157.84;;;13.54;81.76
61568;BME280;47462;59.172;17.196;2022-10-16T08:54:43;100142.22;;;13.52;81.29
61568;BME280;47462;59.172;17.196;2022-10-16T08:56:53;100140.13;;;13.59;80.96
61568;BME280;47462;59.172;17.196;2022-10-16T08:59:21;100144.28;;;13.63;81.26
61568;BME280;47462;59.172;17.196;2022-10-16T09:01:49;100138.56;;;13.72;80.96
61568;BME280;47462;59.172;17.196;2022-10-16T09:06:56;100154.84;;;13.79;80.45
61568;BME280;47462;59.172;17.196;2022-10-16T09:23:31;100134.88;;;14.10;79.92
61568;BME280;47462;59.172;17.196;2022-10-16T09:26:03;100138.53;;;14.07;79.33
61568;BME280;47462;59.172;17.196;2022-10-16T09:29:13;100117.41;;;14.26;78.32
61568;BME280;47462;59.172;17.196;2022-10-16T09:31:41;100147.41;;;14.38;78.76
61568;BME280;47462;59.172;17.196;2022-10-16T09:36:54;100100.75;;;13.94;78.03
61568;BME280;47462;59.172;17.196;2022-10-16T09:39:24;100140.63;;;14.01;78.30
61568;BME280;47462;59.172;17.196;2022-10-16T09:41:50;100157.31;;;14.00;78.04
61568;BME280;47462;59.172;17.196;2022-10-16T09:44:28;100154.06;;;13.95;78.34
61568;BME280;47462;59.172;17.196;2022-10-16T09:47:10;100146.34;;;13.91;78.40
61568;BME280;47462;59.172;17.196;2022-10-16T09:49:38;100106.03;;;13.59;77.32
61568;BME280;47462;59.172;17.196;2022-10-16T09:52:11;100123.16;;;13.66;77.39
61568;BME280;47462;59.172;17.196;2022-10-16T09:54:50;100046.19;;;13.15;77.55
61568;BME280;47462;59.172;17.196;2022-10-16T09:57:16;100125.00;;;13.64;76.78
61568;BME280;47462;59.172;17.196;2022-10-16T09:59:57;100133.00;;;13.61;76.91
61568;BME280;47462;59.172;17.196;2022-10-16T10:02:41;100150.91;;;13.70;77.41
61568;BME280;47462;59.172;17.196;2022-10-16T10:05:19;100147.97;;;13.77;77.30
61568;BME280;47462;59.172;17.196;2022-10-16T10:07:55;100096.47;;;13.58;76.34
61568;BME280;47462;59.172;17.196;2022-10-16T10:10:28;100094.63;;;13.60;76.59
61568;BME280;47462;59.172;17.196;2022-10-16T10:12:56;100131.16;;;13.81;76.01
61568;BME280;47462;59.172;17.196;2022-10-16T10:15:25;100127.78;;;13.79;75.79
61568;BME280;47462;59.172;17.196;2022-10-16T10:17:56;100129.31;;;13.83;75.54
61568;BME280;47462;59.172;17.196;2022-10-16T10:20:33;100130.84;;;13.87;75.15
61568;BME280;47462;59.172;17.196;2022-10-16T10:23:01;100070.88;;;13.46;74.84
61568;BME280;47462;59.172;17.196;2022-10-16T10:34:11;100131.16;;;13.98;75.20
61568;BME280;47462;59.172;17.196;2022-10-16T10:36:56;100068.41;;;13.60;75.74
61568;BME280;47462;59.172;17.196;2022-10-16T10:39:31;100150.72;;;14.08;74.69
61568;BME280;47462;59.172;17.196;2022-10-16T10:47:39;100125.19;;;14.28;74.71
61568;BME280;47462;59.172;17.196;2022-10-16T11:05:18;100111.41;;;14.24;75.16
61568;BME280;47462;59.172;17.196;2022-10-16T11:08:06;100113.69;;;14.31;75.31
61568;BME280;47462;59.172;17.196;2022-10-16T11:11:03;100103.84;;;14.68;74.21
61568;BME280;47462;59.172;17.196;2022-10-16T11:16:32;100069.53;;;14.71;72.36
61568;BME280;47462;59.172;17.196;2022-10-16T11:19:29;100094.94;;;14.86;71.42
61568;BME280;47462;59.172;17.196;2022-10-16T11:24:49;100097.31;;;14.75;72.25
61568;BME280;47462;59.172;17.196;2022-10-16T11:27:20;100082.53;;;14.88;71.57
61568;BME280;47462;59.172;17.196;2022-10-16T11:30:01;100086.47;;;14.81;70.22
61568;BME280;47462;59.172;17.196;2022-10-16T11:32:32;100049.34;;;14.71;70.55
61568;BME280;47462;59.172;17.196;2022-10-16T11:35:19;100067.66;;;14.73;70.71
61568;BME280;47462;59.172;17.196;2022-10-16T11:37:49;99999.19;;;14.44;70.48
61568;BME280;47462;59.172;17.196;2022-10-16T11:40:32;100056.63;;;14.82;70.76
61568;BME280;47462;59.172;17.196;2022-10-16T11:43:25;100055.47;;;14.72;70.73
61568;BME280;47462;59.172;17.196;2022-10-16T11:45:56;100051.50;;;14.65;70.89
61568;BME280;47462;59.172;17.196;2022-10-16T11:48:39;100040.63;;;14.71;70.22
61568;BME280;47462;59.172;17.196;2022-10-16T11:56:36;100022.78;;;14.61;70.92
61568;BME280;47462;59.172;17.196;2022-10-16T12:02:40;99970.25;;;14.30;71.87
61568;BME280;47462;59.172;17.196;2022-10-16T12:07:14;100018.84;;;14.53;71.64
61568;BME280;47462;59.172;17.196;2022-10-16T12:09:45;99930.31;;;14.08;71.76
61568;BME280;47462;59.172;17.196;2022-10-16T12:12:46;99997.63;;;14.41;71.93
61568;BME280;47462;59.172;17.196;2022-10-16T12:15:30;99968.25;;;14.19;72.42
61568;BME280;47462;59.172;17.196;2022-10-16T12:17:58;100012.34;;;14.28;73.60
61568;BME280;47462;59.172;17.196;2022-10-16T12:20:28;100008.34;;;14.21;74.15
61568;BME280;47462;59.172;17.196;2022-10-16T12:23:16;99977.78;;;14.04;74.21
61568;BME280;47462;59.172;17.196;2022-10-16T12:25:59;100022.94;;;14.11;75.31
61568;BME280;47462;59.172;17.196;2022-10-16T12:28:34;99998.88;;;14.02;75.48
61568;BME280;47462;59.172;17.196;2022-10-16T12:31:09;99916.16;;;13.47;75.41
61568;BME280;47462;59.172;17.196;2022-10-16T12:33:51;99963.56;;;13.76;75.30
61568;BME280;47462;59.172;17.196;2022-10-16T12:36:30;99991.53;;;14.09;74.93
61568;BME280;47462;59.172;17.196;2022-10-16T12:38:57;99897.41;;;13.71;74.50
61568;BME280;47462;59.172;17.196;2022-10-16T12:43:56;99933.72;;;14.11;76.48
61568;BME280;47462;59.172;17.196;2022-10-16T12:49:21;99946.91;;;14.25;74.27
61568;BME280;47462;59.172;17.196;2022-10-16T12:51:47;99873.06;;;13.85;73.73
61568;BME280;47462;59.172;17.196;2022-10-16T12:54:19;99905.44;;;14.16;73.16
61568;BME280;47462;59.172;17.196;2022-10-16T13:07:37;99975.78;;;14.25;69.30
61568;BME280;47462;59.172;17.196;2022-10-16T13:10:33;99994.31;;;14.06;69.65
61568;BME280;47462;59.172;17.196;2022-10-16T13:13:29;99995.41;;;13.86;69.42
61568;BME280;47462;59.172;17.196;2022-10-16T13:16:27;99991.94;;;14.49;68.02
61568;BME280;47462;59.172;17.196;2022-10-16T13:30:16;99967.13;;;13.91;70.21
61568;BME280;47462;59.172;17.196;2022-10-16T13:35:36;99949.53;;;13.93;70.26
61568;BME280;47462;59.172;17.196;2022-10-16T13:38:12;99941.41;;;13.98;70.84
61568;BME280;47462;59.172;17.196;2022-10-16T13:40:48;99936.25;;;13.96;71.04
61568;BME280;47462;59.172;17.196;2022-10-16T13:43:19;99938.19;;;14.08;71.10
61568;BME280;47462;59.172;17.196;2022-10-16T13:46:04;99931.09;;;14.11;71.11
61568;BME280;47462;59.172;17.196;2022-10-16T13:48:32;99925.16;;;14.07;70.88
61568;BME280;47462;59.172;17.196;2022-10-16T13:51:15;99830.53;;;13.48;71.05
61568;BME280;47462;59.172;17.196;2022-10-16T13:53:44;99762.22;;;13.01;71.35
61568;BME280;47462;59.172;17.196;2022-10-16T13:56:19;99925.75;;;13.96;72.02
61568;BME280;47462;59.172;17.196;2022-10-16T13:58:45;99930.75;;;14.01;70.98
61568;BME280;47462;59.172;17.196;2022-10-16T14:01:18;99932.69;;;14.13;70.44
61568;BME280;47462;59.172;17.196;2022-10-16T14:03:50;99821.03;;;13.61;70.04
61568;BME280;47462;59.172;17.196;2022-10-16T14:06:22;99820.38;;;13.58;70.64
61568;BME280;47462;59.172;17.196;2022-10-16T14:08:54;99924.06;;;14.11;69.57
61568;BME280;47462;59.172;17.196;2022-10-16T14:11:25;99913.91;;;14.05;69.42
61568;BME280;47462;59.172;17.196;2022-10-16T14:13:52;99924.31;;;14.06;69.05
61568;BME280;47462;59.172;17.196;2022-10-16T14:16:23;99935.06;;;14.02;69.45
61568;BME280;47462;59.172;17.196;2022-10-16T14:19:04;99948.44;;;13.97;69.10
61568;BME280;47462;59.172;17.196;2022-10-16T14:21:35;99855.19;;;13.44;69.74
61568;BME280;47462;59.172;17.196;2022-10-16T14:24:31;99891.06;;;13.59;69.29
61568;BME280;47462;59.172;17.196;2022-10-16T14:26:58;99933.97;;;13.90;70.34
61568;BME280;47462;59.172;17.196;2022-10-16T14:29:30;99888.53;;;13.73;70.91
61568;BME280;47462;59.172;17.196;2022-10-16T14:32:02;99907.22;;;13.83;71.11
61568;BME280;47462;59.172;17.196;2022-10-16T14:34:34;99966.72;;;13.83;71.56
61568;BME280;47462;59.172;17.196;2022-10-16T14:37:24;99996.72;;;13.44;69.30
61568;BME280;47462;59.172;17.196;2022-10-16T14:39:51;99945.06;;;12.04;71.16
61568;BME280;47462;59.172;17.196;2022-10-16T14:42:22;99913.84;;;11.23;70.88
61568;BME280;47462;59.172;17.196;2022-10-16T14:44:50;100038.81;;;11.53;73.80
61568;BME280;47462;59.172;17.196;2022-10-16T14:47:22;99936.56;;;10.60;74.52
61568;BME280;47462;59.172;17.196;2022-10-16T14:49:53;100003.06;;;10.49;75.32
61568;BME280;47462;59.172;17.196;2022-10-16T14:52:27;100079.22;;;10.81;76.58
61568;BME280;47462;59.172;17.196;2022-10-16T14:54:53;100000.56;;;10.23;77.58
61568;BME280;47462;59.172;17.196;2022-10-16T14:57:26;100045.34;;;10.58;78.04
61568;BME280;47462;59.172;17.196;2022-10-16T14:59:53;100030.22;;;10.44;78.24
61568;BME280;47462;59.172;17.196;2022-10-16T15:04:54;99916.66;;;9.91;79.37
61568;BME280;47462;59.172;17.196;2022-10-16T15:07:20;99986.06;;;10.39;79.92
61568;BME280;47462;59.172;17.196;2022-10-16T15:09:47;99984.91;;;10.46;80.27
61568;BME280;47462;59.172;17.196;2022-10-16T15:12:14;100005.72;;;10.48;80.67
61568;BME280;47462;59.172;17.196;2022-10-16T15:14:41;99915.06;;;9.87;80.71
61568;BME280;47462;59.172;17.196;2022-10-16T15:17:09;100016.16;;;10.24;80.97
61568;BME280;47462;59.172;17.196;2022-10-16T15:19:38;99918.94;;;9.53;81.88
61568;BME280;47462;59.172;17.196;2022-10-16T15:22:04;100018.03;;;10.21;82.29
61568;BME280;47462;59.172;17.196;2022-10-16T15:24:29;99989.06;;;10.06;82.46